METAR Data
IDs: Format: Raw Decoded Include TAF

Data at: 0850 UTC 21 Oct 2018

METAR for:KCVG (Cincinnati Intl, KY, US)
Text:KCVG 210752Z 32007KT 10SM BKN036 02/M01 A3029 RMK AO2 SLP256 T00221006
Temperature: 2.2°C ( 36°F)
Dewpoint: -0.6°C ( 31°F) [RH = 82%]
Pressure (altimeter):30.29 inches Hg (1025.8 mb) [Sea level pressure: 1025.6 mb]
Winds:from the NW (320 degrees) at 8 MPH (7 knots; 3.6 m/s)
Visibility:10 or more sm (16+ km)
Ceiling:3600 feet AGL
Clouds: broken clouds at 3600 feet AGL